Ely, MN

7:46 AM CST on November 23, 2017 (GMT -0600)
Ely Municipal

Weather History for KELO - April, 2013

Change the Weather History Date:

Tuesday, April 2, 2013

  Actual Average Record
Temperature  
Mean Temperature 20 °F -  
Max Temperature 30 °F 39 °F 57 °F (2004)
Min Temperature 10 °F 20 °F 3 °F (2014)
Degree Days  
Heating Degree Days 45    
Moisture  
Dew Point 2 °F    
Average Humidity 49    
Maximum Humidity 85    
Minimum Humidity 23    
Precipitation  
Precipitation 0.00 in - - ()
Sea Level Pressure  
Sea Level Pressure 30.19 in    
Wind  
Wind Speed 6 mph (WNW)    
Max Wind Speed 15 mph    
Max Gust Speed 23 mph    
Visibility 10 miles    
Events      
Averages and records for this station are not official NWS values.
T = Trace of Precipitation, MM = Missing Value Source: NWS Daily Summary

Daily Weather History Graph

Daily Weather History Graph

Search for Another Location

Airport or City:

Trip Planner

Search our weather history database for the weather conditions in past years. The results will help you decide how hot, cold, wet, or windy it might be!

Date:

Astronomy

Apr. 02, 2013 Rise Set
Actual Time 6:43 AM CDT 7:39 PM CDT
Civil Twilight 6:11 AM CDT 8:10 PM CDT
Nautical Twilight 5:34 AM CDT 8:48 PM CDT
Astronomical Twilight 4:54 AM CDT 9:28 PM CDT
Moon 2:02 AM CDT (4/2) 11:16 AM CDT (4/2)
Length of Visible Light 13h 58m
Length of Day
12h 55m
Waning Gibbous, 55% of the Moon is Illuminated
Apr 2
Waning Gibbous
Apr 2
Last Quarter
Apr 10
New
Apr 18
First Quarter
Apr 25
Full

Hourly Weather History & Observations

Time (CDT) Temp. Windchill Dew Point Humidity Pressure Visibility Wind Dir Wind Speed Gust Speed Precip Events Conditions
12:01 AM 19.4 °F 12.8 °F 6.8 °F 58% 30.09 in 10.0 mi West 4.6 mph - N/A   Clear
12:21 AM 19.4 °F 10.4 °F 6.8 °F 58% 30.09 in 10.0 mi WNW 6.9 mph - N/A   Clear
12:41 AM 19.4 °F 11.5 °F 6.8 °F 58% 30.09 in 10.0 mi West 5.8 mph - N/A   Clear
1:01 AM 17.6 °F 10.7 °F 6.8 °F 63% 30.09 in 10.0 mi West 4.6 mph - N/A   Clear
1:21 AM 17.6 °F 12.3 °F 6.8 °F 63% 30.10 in 10.0 mi West 3.5 mph - N/A   Clear
1:41 AM 17.6 °F 10.7 °F 6.8 °F 63% 30.10 in 10.0 mi West 4.6 mph - N/A   Clear
2:01 AM 15.8 °F 6.1 °F 6.8 °F 68% 30.10 in 10.0 mi West 6.9 mph - N/A   Clear
2:21 AM 15.8 °F 6.1 °F 6.8 °F 68% 30.10 in 10.0 mi West 6.9 mph - N/A   Clear
2:41 AM 15.8 °F 6.1 °F 8.6 °F 73% 30.10 in 10.0 mi West 6.9 mph - N/A   Clear
3:01 AM 15.8 °F 6.1 °F 8.6 °F 73% 30.10 in 10.0 mi West 6.9 mph - N/A   Clear
3:21 AM 15.8 °F 7.2 °F 8.6 °F 73% 30.10 in 10.0 mi West 5.8 mph - N/A   Clear
3:41 AM 14.0 °F 5.1 °F 8.6 °F 79% 30.10 in 10.0 mi West 5.8 mph - N/A   Clear
4:01 AM 14.0 °F 5.1 °F 6.8 °F 73% 30.10 in 10.0 mi WNW 5.8 mph - N/A   Clear
4:21 AM 12.2 °F 2.9 °F 6.8 °F 79% 30.11 in 10.0 mi WNW 5.8 mph - N/A   Clear
4:41 AM 12.2 °F 2.9 °F 6.8 °F 79% 30.11 in 10.0 mi West 5.8 mph - N/A   Clear
5:01 AM 12.2 °F 4.3 °F 6.8 °F 79% 30.12 in 10.0 mi West 4.6 mph - N/A   Clear
5:21 AM 12.2 °F 6.1 °F 6.8 °F 79% 30.12 in 10.0 mi West 3.5 mph - N/A   Clear
5:41 AM 10.4 °F 4.0 °F 6.8 °F 85% 30.13 in 10.0 mi West 3.5 mph - N/A   Clear
6:01 AM 10.4 °F - 6.8 °F 85% 30.13 in 10.0 mi West 2.3 mph - N/A   Clear
6:21 AM 10.4 °F 4.0 °F 6.8 °F 85% 30.13 in 10.0 mi West 3.5 mph - N/A   Clear
6:41 AM 12.2 °F - 6.8 °F 79% 30.14 in 10.0 mi West 1.2 mph - N/A   Clear
7:01 AM 10.4 °F 4.0 °F 6.8 °F 85% 30.15 in 10.0 mi West 3.5 mph - N/A   Clear
7:21 AM 12.2 °F 6.1 °F 6.8 °F 79% 30.15 in 10.0 mi West 3.5 mph - N/A   Clear
7:41 AM 14.0 °F 8.2 °F 8.6 °F 79% 30.16 in 10.0 mi West 3.5 mph - N/A   Clear
8:01 AM 15.8 °F 7.2 °F 8.6 °F 73% 30.16 in 10.0 mi WNW 5.8 mph - N/A   Clear
8:41 AM 17.6 °F 9.3 °F 6.8 °F 63% 30.17 in 10.0 mi NW 5.8 mph - N/A   Clear
9:01 AM 19.4 °F 11.5 °F 6.8 °F 58% 30.18 in 10.0 mi NW 5.8 mph - N/A   Clear
9:19 AM 19.4 °F 11.5 °F 6.8 °F 58% 30.18 in 10.0 mi WNW 5.8 mph - N/A   Clear
9:33 AM 21.2 °F 16.4 °F 6.8 °F 54% 30.18 in 10.0 mi NNW 3.5 mph - N/A   Clear
9:52 AM 21.2 °F 12.6 °F 5.0 °F 50% 30.18 in 10.0 mi NNW 6.9 mph - N/A   Clear
10:13 AM 23.0 °F 14.7 °F 3.2 °F 43% 30.18 in 10.0 mi NNW 6.9 mph - N/A   Clear
10:33 AM 24.8 °F 16.1 °F 3.2 °F 40% 30.19 in 10.0 mi NW 8.1 mph 16.1 mph N/A   Clear
10:52 AM 24.8 °F 14.0 °F 3.2 °F 40% 30.19 in 10.0 mi NNW 11.5 mph 19.6 mph N/A   Clear
11:13 AM 26.6 °F 16.8 °F 3.2 °F 37% 30.19 in 10.0 mi NNW 10.4 mph 20.7 mph N/A   Clear
11:33 AM 26.6 °F 16.2 °F 3.2 °F 37% 30.20 in 10.0 mi NNW 11.5 mph 23.0 mph N/A   Clear
11:52 AM 26.6 °F 15.2 °F 1.4 °F 34% 30.20 in 10.0 mi WNW 13.8 mph 20.7 mph N/A   Clear
12:13 PM 26.6 °F 15.7 °F 1.4 °F 34% 30.20 in 10.0 mi NW 12.7 mph 20.7 mph N/A   Clear
12:33 PM 26.6 °F 17.5 °F -0.4 °F 31% 30.20 in 10.0 mi WNW 9.2 mph 18.4 mph N/A   Clear
12:52 PM 26.6 °F 15.2 °F -2.2 °F 29% 30.20 in 10.0 mi NW 13.8 mph 21.9 mph N/A   Clear
1:13 PM 28.4 °F 19.1 °F -2.2 °F 27% 30.20 in 10.0 mi NW 10.4 mph 23.0 mph N/A   Clear
1:33 PM 28.4 °F 19.1 °F -2.2 °F 27% 30.20 in 10.0 mi NNW 10.4 mph 19.6 mph N/A   Clear
1:52 PM 28.4 °F 18.0 °F -2.2 °F 27% 30.20 in 10.0 mi NW 12.7 mph 17.3 mph N/A   Clear
2:13 PM 28.4 °F 17.0 °F -2.2 °F 27% 30.21 in 10.0 mi NW 15.0 mph 18.4 mph N/A   Clear
2:33 PM 30.2 °F 20.8 °F -2.2 °F 25% 30.21 in 10.0 mi NW 11.5 mph 20.7 mph N/A   Clear
2:52 PM 30.2 °F 21.9 °F -2.2 °F 25% 30.21 in 10.0 mi NW 9.2 mph 18.4 mph N/A   Clear
3:13 PM 30.2 °F 19.8 °F -0.4 °F 27% 30.21 in 10.0 mi WNW 13.8 mph 18.4 mph N/A   Clear
3:32 PM 30.2 °F 21.9 °F -2.2 °F 25% 30.21 in 10.0 mi WNW 9.2 mph 17.3 mph N/A   Clear
3:53 PM 30.2 °F 19.3 °F -2.2 °F 25% 30.21 in 10.0 mi NW 15.0 mph 23.0 mph N/A   Clear
4:12 PM 30.2 °F 20.2 °F -4.0 °F 23% 30.21 in 10.0 mi NW 12.7 mph 19.6 mph N/A   Clear
4:33 PM 30.2 °F 20.8 °F -2.2 °F 25% 30.22 in 10.0 mi NW 11.5 mph 18.4 mph N/A   Clear
4:47 PM 30.2 °F 20.8 °F -4.0 °F 23% 30.22 in 10.0 mi NW 11.5 mph 18.4 mph N/A   Clear
5:19 PM 30.2 °F 21.3 °F -2.2 °F 25% 30.23 in 10.0 mi NW 10.4 mph 17.3 mph N/A   Clear
5:32 PM 30.2 °F 20.2 °F -2.2 °F 25% 30.23 in 10.0 mi NNW 12.7 mph 17.3 mph N/A   Clear
5:53 PM 30.2 °F 21.3 °F -2.2 °F 25% 30.24 in 10.0 mi WNW 10.4 mph - N/A   Clear
6:13 PM 30.2 °F 21.9 °F -4.0 °F 23% 30.24 in 10.0 mi NW 9.2 mph - N/A   Clear
6:32 PM 28.4 °F 20.4 °F -2.2 °F 27% 30.25 in 10.0 mi NW 8.1 mph - N/A   Clear
6:53 PM 28.4 °F 21.2 °F -4.0 °F 25% 30.25 in 10.0 mi NNW 6.9 mph - N/A   Clear
7:12 PM 26.6 °F 18.2 °F -2.2 °F 29% 30.25 in 10.0 mi WNW 8.1 mph - N/A   Clear
7:33 PM 26.6 °F 18.2 °F -2.2 °F 29% 30.25 in 10.0 mi NW 8.1 mph - N/A   Clear
7:52 PM 26.6 °F 21.2 °F -2.2 °F 29% 30.25 in 10.0 mi NW 4.6 mph - N/A   Clear
8:13 PM 24.8 °F 20.5 °F -2.2 °F 31% 30.26 in 10.0 mi NW 3.5 mph - N/A   Clear
8:32 PM 24.8 °F 20.5 °F -2.2 °F 31% 30.26 in 10.0 mi NW 3.5 mph - N/A   Clear
8:53 PM 23.0 °F 18.4 °F -2.2 °F 33% 30.27 in 10.0 mi NW 3.5 mph - N/A   Clear
9:13 PM 21.2 °F - -4.0 °F 33% 30.27 in 10.0 mi Calm Calm - N/A   Clear
9:33 PM 19.4 °F - -0.4 °F 42% 30.28 in 10.0 mi Calm Calm - N/A   Clear
9:53 PM 17.6 °F 12.3 °F -0.4 °F 45% 30.28 in 10.0 mi NW 3.5 mph - N/A   Clear
10:13 PM 17.6 °F 12.3 °F 1.4 °F 49% 30.28 in 10.0 mi NW 3.5 mph - N/A   Clear
10:32 PM 15.8 °F - 1.4 °F 53% 30.28 in 10.0 mi Calm Calm - N/A   Clear
10:53 PM 15.8 °F - 1.4 °F 53% 30.29 in 10.0 mi Calm Calm - N/A   Clear
11:13 PM 12.2 °F - 1.4 °F 62% 30.29 in 10.0 mi Calm Calm - N/A   Clear
11:32 PM 12.2 °F - 1.4 °F 62% 30.29 in 10.0 mi Calm Calm - N/A   Clear
11:53 PM 10.4 °F - 1.4 °F 67% 30.30 in 10.0 mi Calm Calm - N/A   Clear